createdAt,value
2022-10-05T00:00:51.266Z,13.93
2022-10-05T00:01:53.870Z,13.94
2022-10-05T00:02:56.048Z,13.93
2022-10-05T00:04:06.520Z,13.93
2022-10-05T00:05:20.398Z,13.91
2022-10-05T00:06:22.437Z,13.82
2022-10-05T00:07:25.124Z,13.91
2022-10-05T00:08:31.928Z,13.88
2022-10-05T00:09:34.298Z,13.85
2022-10-05T00:10:36.641Z,13.83
2022-10-05T00:11:38.356Z,13.80
2022-10-05T00:12:40.056Z,13.81
2022-10-05T00:13:42.484Z,13.78
2022-10-05T00:14:46.246Z,13.79
2022-10-05T00:15:49.071Z,13.76
2022-10-05T00:16:51.236Z,13.75
2022-10-05T00:17:53.180Z,13.67
2022-10-05T00:18:54.804Z,13.74
2022-10-05T00:19:56.854Z,13.75
2022-10-05T00:20:58.522Z,13.70
2022-10-05T00:22:12.124Z,13.69
2022-10-05T00:23:24.940Z,13.70
2022-10-05T00:24:26.623Z,13.54
2022-10-05T00:25:28.658Z,13.52
2022-10-05T00:26:33.588Z,13.68
2022-10-05T00:27:38.140Z,13.68
2022-10-05T00:28:41.237Z,13.70
2022-10-05T00:29:42.961Z,13.66
2022-10-05T00:30:45.021Z,13.62
2022-10-05T00:31:46.894Z,13.66
2022-10-05T00:32:49.213Z,13.63
2022-10-05T00:33:51.054Z,13.68
2022-10-05T00:34:52.796Z,13.68
2022-10-05T00:35:55.639Z,13.69
2022-10-05T00:36:58.581Z,13.69
2022-10-05T00:38:00.286Z,13.61
2022-10-05T00:39:02.354Z,13.70
2022-10-05T00:40:39.514Z,13.70
2022-10-05T00:41:47.081Z,13.69
2022-10-05T00:42:48.659Z,13.70
2022-10-05T00:44:21.230Z,13.69
2022-10-05T00:45:29.006Z,13.59
2022-10-05T00:46:59.934Z,13.66
2022-10-05T00:48:13.294Z,13.66
2022-10-05T00:49:39.638Z,13.67
2022-10-05T00:50:59.550Z,13.66
2022-10-05T00:52:24.500Z,13.64
2022-10-05T00:53:26.105Z,13.58
2022-10-05T00:54:46.548Z,13.55
2022-10-05T00:56:35.734Z,13.52
2022-10-05T00:58:06.901Z,13.42
2022-10-05T00:59:37.211Z,13.42
2022-10-05T01:01:04.917Z,13.36
2022-10-05T01:02:23.718Z,13.34
2022-10-05T01:03:39.419Z,13.18
2022-10-05T01:04:47.430Z,13.34
2022-10-05T01:06:22.688Z,13.32
2022-10-05T01:07:30.304Z,13.30
2022-10-05T01:08:51.526Z,13.27
2022-10-05T01:10:16.068Z,13.22
2022-10-05T01:11:17.684Z,13.19
2022-10-05T01:12:31.432Z,13.18
2022-10-05T01:14:11.933Z,13.19
2022-10-05T01:15:21.990Z,13.19
2022-10-05T01:17:05.091Z,13.22
2022-10-05T01:18:16.497Z,13.19
2022-10-05T01:19:50.084Z,13.20
2022-10-05T01:20:57.633Z,13.22
2022-10-05T01:22:34.476Z,13.16
2022-10-05T01:23:51.484Z,13.01
2022-10-05T01:25:18.101Z,12.98
2022-10-05T01:26:38.256Z,12.97
2022-10-05T01:27:48.284Z,12.97
2022-10-05T01:28:53.064Z,12.95
2022-10-05T01:30:10.931Z,12.93
2022-10-05T01:31:25.860Z,12.89
2022-10-05T01:33:02.744Z,12.80
2022-10-05T01:34:17.114Z,12.81
2022-10-05T01:35:24.601Z,12.81
2022-10-05T01:36:37.608Z,12.77
2022-10-05T01:37:48.432Z,12.74
2022-10-05T01:38:55.855Z,12.63
2022-10-05T01:40:21.973Z,12.67
2022-10-05T01:41:51.383Z,12.62
2022-10-05T01:43:20.708Z,12.62
2022-10-05T01:44:46.259Z,12.64
2022-10-05T01:46:06.695Z,12.62
2022-10-05T01:47:21.753Z,12.57
2022-10-05T01:48:43.298Z,12.59
2022-10-05T01:50:01.882Z,12.48
2022-10-05T01:51:12.965Z,12.57
2022-10-05T01:52:56.576Z,12.52
2022-10-05T01:54:35.423Z,12.43
2022-10-05T01:56:03.842Z,12.40
2022-10-05T01:57:35.837Z,12.37
2022-10-05T01:58:50.822Z,12.33
2022-10-05T02:00:01.615Z,12.31
2022-10-05T02:01:24.356Z,12.13
2022-10-05T02:02:28.780Z,12.24
2022-10-05T02:03:37.307Z,12.22
2022-10-05T02:05:04.676Z,12.09
2022-10-05T02:06:21.548Z,12.16
2022-10-05T02:07:29.616Z,12.12
2022-10-05T02:08:38.799Z,12.08
2022-10-05T02:09:58.663Z,11.95
2022-10-05T02:11:06.308Z,11.91
2022-10-05T02:12:16.158Z,11.86
2022-10-05T02:13:48.104Z,11.80
2022-10-05T02:14:54.772Z,11.78
2022-10-05T02:16:16.996Z,11.61
2022-10-05T02:17:28.330Z,11.68
2022-10-05T02:18:35.978Z,11.63
2022-10-05T02:19:37.587Z,11.57
2022-10-05T02:20:42.442Z,11.58
2022-10-05T02:21:49.102Z,11.41
2022-10-05T02:22:54.842Z,11.51
2022-10-05T02:24:02.884Z,11.48
2022-10-05T02:25:15.458Z,11.25
2022-10-05T02:26:19.259Z,11.41
2022-10-05T02:27:28.126Z,11.36
2022-10-05T02:28:38.358Z,11.24
2022-10-05T02:29:45.741Z,11.29
2022-10-05T02:30:53.140Z,11.22
2022-10-05T02:32:03.654Z,11.13
2022-10-05T02:33:13.998Z,11.11
2022-10-05T02:34:24.810Z,11.07
2022-10-05T02:35:26.634Z,11.03
2022-10-05T02:36:35.703Z,10.86
2022-10-05T02:37:54.472Z,11.01
2022-10-05T02:39:11.327Z,10.89
2022-10-05T02:40:18.836Z,10.95
2022-10-05T02:41:28.906Z,10.94
2022-10-05T02:42:48.334Z,10.92
2022-10-05T02:44:16.879Z,10.82
2022-10-05T02:45:49.169Z,10.86
2022-10-05T02:47:03.573Z,10.85
2022-10-05T02:48:11.196Z,10.86
2022-10-05T02:49:34.342Z,10.88
2022-10-05T02:50:49.446Z,10.87
2022-10-05T02:52:17.161Z,10.89
2022-10-05T02:53:33.754Z,10.91
2022-10-05T02:54:50.176Z,10.93
2022-10-05T02:55:57.788Z,10.97
2022-10-05T02:57:19.336Z,10.98
2022-10-05T02:58:25.918Z,10.98
2022-10-05T02:59:38.869Z,10.86
2022-10-05T03:00:48.091Z,11.01
2022-10-05T03:01:55.823Z,11.02
2022-10-05T03:03:06.466Z,11.06
2022-10-05T03:04:28.646Z,11.04
2022-10-05T03:05:43.581Z,11.16
2022-10-05T03:06:58.856Z,11.20
2022-10-05T03:08:22.391Z,11.19
2022-10-05T03:09:32.030Z,11.24
2022-10-05T03:10:33.674Z,11.27
2022-10-05T03:11:38.217Z,11.31
2022-10-05T03:12:50.018Z,11.25
2022-10-05T03:14:12.064Z,11.38
2022-10-05T03:15:58.926Z,11.42
2022-10-05T03:17:22.962Z,11.47
2022-10-05T03:18:55.799Z,11.44
2022-10-05T03:20:22.751Z,11.54
2022-10-05T03:21:42.112Z,11.54
2022-10-05T03:23:04.716Z,11.57
2022-10-05T03:24:24.709Z,11.59
2022-10-05T03:25:38.614Z,11.62
2022-10-05T03:26:43.400Z,11.66
2022-10-05T03:27:57.237Z,11.66
2022-10-05T03:29:10.884Z,11.73
2022-10-05T03:30:23.912Z,11.80
2022-10-05T03:31:56.443Z,11.84
2022-10-05T03:33:13.208Z,11.89
2022-10-05T03:34:30.181Z,11.94
2022-10-05T03:35:58.622Z,11.88
2022-10-05T03:37:19.005Z,12.03
2022-10-05T03:39:18.101Z,12.05
2022-10-05T03:40:34.721Z,12.09
2022-10-05T03:42:05.906Z,12.10
2022-10-05T03:43:13.380Z,12.14
2022-10-05T03:44:32.967Z,12.17
2022-10-05T03:46:02.501Z,12.19
2022-10-05T03:47:33.215Z,12.20
2022-10-05T03:48:50.200Z,12.17
2022-10-05T03:50:19.531Z,12.22
2022-10-05T03:51:32.167Z,12.27
2022-10-05T03:52:45.997Z,12.28
2022-10-05T03:53:54.717Z,12.20
2022-10-05T03:55:05.686Z,12.29
2022-10-05T03:56:17.061Z,12.30
2022-10-05T03:57:23.423Z,12.33
2022-10-05T03:58:36.025Z,12.35
2022-10-05T04:00:01.065Z,12.36
2022-10-05T04:01:08.937Z,12.36
2022-10-05T04:02:24.009Z,12.36
2022-10-05T04:03:55.970Z,12.37
2022-10-05T04:05:16.716Z,12.38
2022-10-05T04:06:24.753Z,12.37
2022-10-05T04:07:38.906Z,12.38
2022-10-05T04:09:00.531Z,12.36
2022-10-05T04:10:07.684Z,12.39
2022-10-05T04:11:31.900Z,12.35
2022-10-05T04:12:38.937Z,12.41
2022-10-05T04:13:56.256Z,12.39
2022-10-05T04:15:03.158Z,12.29
2022-10-05T04:16:17.276Z,12.35
2022-10-05T04:17:35.771Z,12.36
2022-10-05T04:18:43.952Z,12.24
2022-10-05T04:19:57.185Z,12.32
2022-10-05T04:21:11.848Z,12.35
2022-10-05T04:22:22.841Z,12.34
2022-10-05T04:23:39.204Z,12.30
2022-10-05T04:24:49.335Z,12.14
2022-10-05T04:25:56.988Z,12.22
2022-10-05T04:27:11.601Z,12.17
2022-10-05T04:28:46.258Z,12.11
2022-10-05T04:29:57.208Z,12.10
2022-10-05T04:31:04.031Z,12.06
2022-10-05T04:32:08.451Z,12.05
2022-10-05T04:33:16.128Z,12.03
2022-10-05T04:34:41.011Z,12.01
2022-10-05T04:36:05.080Z,11.97
2022-10-05T04:37:16.013Z,11.97
2022-10-05T04:38:48.885Z,11.94
2022-10-05T04:40:00.793Z,11.93
2022-10-05T04:41:34.699Z,11.91
2022-10-05T04:42:47.560Z,11.91
2022-10-05T04:43:58.239Z,11.91
2022-10-05T04:45:28.973Z,11.86
2022-10-05T04:47:08.041Z,11.83
2022-10-05T04:48:59.032Z,11.80
2022-10-05T04:50:24.546Z,11.85
2022-10-05T04:51:52.252Z,11.89
2022-10-05T04:53:09.369Z,11.93
2022-10-05T04:54:44.825Z,11.98
2022-10-05T04:56:05.466Z,11.89
2022-10-05T04:57:13.832Z,12.07
2022-10-05T04:58:21.556Z,12.10
2022-10-05T04:59:26.174Z,12.15
2022-10-05T05:00:35.507Z,12.19
2022-10-05T05:02:18.916Z,12.24
2022-10-05T05:03:39.449Z,12.28
2022-10-05T05:04:52.294Z,12.33
2022-10-05T05:06:18.037Z,12.29
2022-10-05T05:07:29.957Z,12.21
2022-10-05T05:08:46.251Z,12.30
2022-10-05T05:10:06.512Z,12.33
2022-10-05T05:11:24.652Z,12.52
2022-10-05T05:12:46.592Z,12.82
2022-10-05T05:14:26.968Z,13.18
2022-10-05T05:15:42.833Z,13.55
2022-10-05T05:16:49.884Z,13.90
2022-10-05T05:18:33.665Z,14.28
2022-10-05T05:19:38.105Z,14.68
2022-10-05T05:20:45.894Z,14.99
2022-10-05T05:22:06.191Z,15.28
2022-10-05T05:23:16.763Z,15.61
2022-10-05T05:24:30.315Z,15.89
2022-10-05T05:25:44.954Z,16.08
2022-10-05T05:26:58.594Z,16.20
2022-10-05T05:28:12.504Z,16.31
2022-10-05T05:29:14.244Z,16.36
2022-10-05T05:30:35.895Z,16.39
2022-10-05T05:31:53.453Z,16.44
2022-10-05T05:33:07.392Z,16.45
2022-10-05T05:34:38.901Z,16.35
2022-10-05T05:35:59.174Z,16.44
2022-10-05T05:37:28.281Z,16.42
2022-10-05T05:38:35.773Z,16.40
2022-10-05T05:40:17.145Z,16.37
2022-10-05T05:41:32.991Z,16.36
2022-10-05T05:42:58.290Z,16.27
2022-10-05T05:44:26.219Z,16.32
2022-10-05T05:45:44.283Z,16.28
2022-10-05T05:47:03.914Z,16.25
2022-10-05T05:48:17.034Z,16.24
2022-10-05T05:49:25.123Z,16.23
2022-10-05T05:51:05.558Z,16.20
2022-10-05T05:52:24.464Z,16.07
2022-10-05T05:53:39.541Z,16.09
2022-10-05T05:54:54.945Z,16.15
2022-10-05T05:56:05.565Z,16.20
2022-10-05T05:57:11.907Z,16.11
2022-10-05T05:58:27.568Z,16.18
2022-10-05T05:59:43.784Z,16.12
2022-10-05T06:00:58.551Z,16.19
2022-10-05T06:02:09.501Z,16.20
2022-10-05T06:03:16.709Z,16.22
2022-10-05T06:04:37.936Z,16.24
2022-10-05T06:05:49.693Z,16.18
2022-10-05T06:06:54.139Z,16.22
2022-10-05T06:08:03.471Z,16.20
2022-10-05T06:09:30.636Z,16.24
2022-10-05T06:10:52.048Z,16.17
2022-10-05T06:11:55.934Z,16.22
2022-10-05T06:13:03.922Z,16.20
2022-10-05T06:14:29.795Z,16.10
2022-10-05T06:15:43.932Z,16.02
2022-10-05T06:16:54.404Z,16.06
2022-10-05T06:18:01.220Z,16.02
2022-10-05T06:19:10.520Z,16.06
2022-10-05T06:20:27.545Z,16.09
2022-10-05T06:21:37.511Z,16.13
2022-10-05T06:22:43.611Z,16.23
2022-10-05T06:23:54.507Z,16.27
2022-10-05T06:25:15.867Z,16.30
2022-10-05T06:26:48.955Z,16.34
2022-10-05T06:28:16.358Z,16.36
2022-10-05T06:29:23.139Z,16.52
2022-10-05T06:30:26.633Z,16.64
2022-10-05T06:31:58.884Z,16.65
2022-10-05T06:33:25.026Z,16.90
2022-10-05T06:34:45.160Z,17.16
2022-10-05T06:36:23.725Z,17.34
2022-10-05T06:37:33.135Z,17.61
2022-10-05T06:39:07.440Z,18.00
2022-10-05T06:40:22.060Z,18.02
2022-10-05T06:41:45.210Z,18.56
2022-10-05T06:43:12.946Z,18.87
2022-10-05T06:44:22.573Z,19.22
2022-10-05T06:45:35.141Z,19.30
2022-10-05T06:46:50.217Z,19.43
2022-10-05T06:48:04.291Z,19.74
2022-10-05T06:49:31.408Z,20.28
2022-10-05T06:50:42.611Z,20.54
2022-10-05T06:51:59.589Z,21.03
2022-10-05T06:53:01.299Z,21.24
2022-10-05T06:54:27.436Z,21.49
2022-10-05T06:55:34.770Z,21.78
2022-10-05T06:56:47.873Z,22.19
2022-10-05T06:58:27.959Z,22.47
2022-10-05T06:59:35.660Z,22.64
2022-10-05T07:00:44.153Z,22.83
2022-10-05T07:01:51.031Z,23.00
2022-10-05T07:03:20.561Z,23.44
2022-10-05T07:04:40.887Z,23.80
2022-10-05T07:06:12.085Z,24.04
2022-10-05T07:07:32.704Z,24.31
2022-10-05T07:08:34.292Z,24.54
2022-10-05T07:10:06.755Z,24.80
2022-10-05T07:11:41.486Z,24.97
2022-10-05T07:12:46.106Z,25.30
2022-10-05T07:13:51.374Z,25.53
2022-10-05T07:14:58.700Z,25.79
2022-10-05T07:16:58.959Z,25.91
2022-10-05T07:18:09.321Z,26.38
2022-10-05T07:19:19.437Z,26.55
2022-10-05T07:20:24.002Z,26.72
2022-10-05T07:21:35.756Z,26.81
2022-10-05T07:22:50.651Z,26.91
2022-10-05T07:24:24.429Z,26.58
2022-10-05T07:25:37.125Z,26.65
2022-10-05T07:26:47.690Z,26.56
2022-10-05T07:27:58.264Z,26.58
2022-10-05T07:29:33.720Z,26.43
2022-10-05T07:30:47.780Z,26.30
2022-10-05T07:32:14.254Z,26.51
2022-10-05T07:33:29.065Z,26.42
2022-10-05T07:34:33.618Z,26.55
2022-10-05T07:36:21.992Z,26.84
2022-10-05T07:38:00.348Z,27.53
2022-10-05T07:39:09.812Z,27.67
2022-10-05T07:40:29.871Z,27.72
2022-10-05T07:41:44.202Z,27.90
2022-10-05T07:43:15.289Z,28.06
2022-10-05T07:44:32.190Z,28.01
2022-10-05T07:45:39.731Z,28.00
2022-10-05T07:46:44.980Z,28.26
2022-10-05T07:48:14.031Z,28.40
2022-10-05T07:49:18.561Z,28.62
2022-10-05T07:50:34.001Z,28.95
2022-10-05T07:51:45.436Z,28.84
2022-10-05T07:52:56.616Z,28.94
2022-10-05T07:53:58.218Z,28.92
2022-10-05T07:55:15.904Z,28.99
2022-10-05T07:56:29.599Z,29.12
2022-10-05T07:57:44.984Z,29.27
2022-10-05T07:59:01.865Z,29.37
2022-10-05T08:00:20.448Z,29.74
2022-10-05T08:01:27.032Z,29.81
2022-10-05T08:02:52.552Z,29.84
2022-10-05T08:03:54.287Z,29.88
2022-10-05T08:05:04.084Z,29.71
2022-10-05T08:06:11.500Z,29.80
2022-10-05T08:07:17.474Z,29.90
2022-10-05T08:08:42.482Z,29.74
2022-10-05T08:10:23.769Z,29.71
2022-10-05T08:11:58.747Z,29.77
2022-10-05T08:13:12.331Z,30.00
2022-10-05T08:14:24.547Z,30.04
2022-10-05T08:15:33.153Z,30.16
2022-10-05T08:16:38.450Z,30.29
2022-10-05T08:17:56.937Z,30.24
2022-10-05T08:19:21.447Z,30.41
2022-10-05T08:20:28.578Z,30.65
2022-10-05T08:21:40.336Z,30.50
2022-10-05T08:22:47.414Z,30.58
2022-10-05T08:24:00.962Z,30.47
2022-10-05T08:25:06.081Z,30.51
2022-10-05T08:26:13.580Z,30.67
2022-10-05T08:27:44.318Z,30.86
2022-10-05T08:28:59.390Z,30.84
2022-10-05T08:30:11.813Z,30.85
2022-10-05T08:31:29.905Z,30.89
2022-10-05T08:32:55.214Z,31.03
2022-10-05T08:34:27.802Z,31.11
2022-10-05T08:35:38.045Z,30.91
2022-10-05T08:36:39.696Z,31.12
2022-10-05T08:37:43.283Z,31.10
2022-10-05T08:38:45.720Z,31.00
2022-10-05T08:40:14.735Z,30.94
2022-10-05T08:41:29.564Z,30.97
2022-10-05T08:43:05.535Z,31.15
2022-10-05T08:44:44.714Z,31.18
2022-10-05T08:45:46.830Z,31.38
2022-10-05T08:47:06.719Z,31.41
2022-10-05T08:48:56.390Z,31.58
2022-10-05T08:50:13.339Z,31.48
2022-10-05T08:51:52.438Z,31.61
2022-10-05T08:52:56.897Z,31.67
2022-10-05T08:54:07.624Z,31.65
2022-10-05T08:55:27.695Z,31.57
2022-10-05T08:56:29.301Z,31.36
2022-10-05T08:57:46.730Z,31.32
2022-10-05T08:59:00.764Z,31.18
2022-10-05T09:00:10.488Z,31.14
2022-10-05T09:01:30.926Z,31.44
2022-10-05T09:02:50.957Z,31.66
2022-10-05T09:04:11.634Z,31.56
2022-10-05T09:05:29.018Z,31.57
2022-10-05T09:06:45.644Z,31.61
2022-10-05T09:08:08.750Z,31.79
2022-10-05T09:09:41.019Z,31.95
2022-10-05T09:10:48.624Z,31.89
2022-10-05T09:12:21.311Z,31.88
2022-10-05T09:13:25.586Z,31.90
2022-10-05T09:14:32.807Z,32.01
2022-10-05T09:15:56.106Z,32.22
2022-10-05T09:17:00.659Z,32.00
2022-10-05T09:18:56.234Z,31.94
2022-10-05T09:20:15.196Z,32.12
2022-10-05T09:21:40.835Z,32.29
2022-10-05T09:23:10.343Z,32.45
2022-10-05T09:24:15.014Z,32.68
2022-10-05T09:26:07.334Z,32.70
2022-10-05T09:27:12.991Z,32.78
2022-10-05T09:28:25.735Z,32.76
2022-10-05T09:30:01.426Z,32.73
2022-10-05T09:31:22.533Z,32.75
2022-10-05T09:32:33.089Z,32.65
2022-10-05T09:33:56.113Z,32.79
2022-10-05T09:35:18.191Z,32.83
2022-10-05T09:36:37.461Z,32.88
2022-10-05T09:37:57.921Z,32.94
2022-10-05T09:39:37.176Z,32.62
2022-10-05T09:41:16.135Z,32.52
2022-10-05T09:42:24.370Z,32.73
2022-10-05T09:43:51.532Z,32.86
2022-10-05T09:45:08.314Z,32.88
2022-10-05T09:46:28.711Z,32.71
2022-10-05T09:47:47.945Z,32.79
2022-10-05T09:49:15.863Z,32.84
2022-10-05T09:50:32.605Z,32.94
2022-10-05T09:51:50.156Z,33.09
2022-10-05T09:53:13.334Z,33.12
2022-10-05T09:54:53.327Z,33.20
2022-10-05T09:56:26.020Z,33.31
2022-10-05T09:57:36.508Z,33.36
2022-10-05T09:59:07.621Z,33.42
2022-10-05T10:00:09.696Z,33.30
2022-10-05T10:01:33.521Z,33.37
2022-10-05T10:03:04.946Z,33.42
2022-10-05T10:04:31.244Z,33.52
2022-10-05T10:06:05.554Z,33.62
2022-10-05T10:07:40.892Z,33.49
2022-10-05T10:08:52.256Z,33.10
2022-10-05T10:10:15.605Z,33.06
2022-10-05T10:11:29.167Z,33.14
2022-10-05T10:13:05.013Z,33.19
2022-10-05T10:14:45.281Z,32.42
2022-10-05T10:16:13.038Z,32.45
2022-10-05T10:17:33.714Z,32.77
2022-10-05T10:18:54.103Z,32.73
2022-10-05T10:20:06.530Z,32.83
2022-10-05T10:21:30.218Z,32.89
2022-10-05T10:23:05.557Z,32.63
2022-10-05T10:24:44.484Z,32.77
2022-10-05T10:26:11.887Z,32.70
2022-10-05T10:27:27.566Z,32.77
2022-10-05T10:28:32.348Z,32.90
2022-10-05T10:29:41.329Z,32.83
2022-10-05T10:31:01.266Z,32.98
2022-10-05T10:32:23.208Z,32.95
2022-10-05T10:33:49.857Z,32.84
2022-10-05T10:34:54.261Z,32.88
2022-10-05T10:36:27.331Z,32.89
2022-10-05T10:37:53.184Z,32.74
2022-10-05T10:39:17.843Z,32.86
2022-10-05T10:40:56.131Z,32.81
2022-10-05T10:42:35.217Z,32.56
2022-10-05T10:43:53.300Z,32.67
2022-10-05T10:45:23.083Z,32.74
2022-10-05T10:46:49.222Z,32.42
2022-10-05T10:48:10.990Z,32.29
2022-10-05T10:49:34.272Z,32.17
2022-10-05T10:50:36.187Z,31.64
2022-10-05T10:51:53.067Z,31.65
2022-10-05T10:53:04.765Z,31.77
2022-10-05T10:54:24.509Z,31.78
2022-10-05T10:55:57.230Z,31.72
2022-10-05T10:57:05.603Z,31.82
2022-10-05T10:58:08.039Z,31.79
2022-10-05T10:59:17.372Z,31.62
2022-10-05T11:00:30.742Z,31.35
2022-10-05T11:02:14.967Z,30.96
2022-10-05T11:03:35.256Z,30.61
2022-10-05T11:05:01.785Z,30.42
2022-10-05T11:06:21.542Z,30.16
2022-10-05T11:07:50.423Z,30.16
2022-10-05T11:09:11.394Z,29.89
2022-10-05T11:10:34.425Z,30.01
2022-10-05T11:11:52.030Z,29.47
2022-10-05T11:13:15.619Z,29.39
2022-10-05T11:14:29.893Z,29.29
2022-10-05T11:16:01.167Z,29.36
2022-10-05T11:17:21.225Z,28.75
2022-10-05T11:18:50.662Z,28.91
2022-10-05T11:20:15.204Z,28.39
2022-10-05T11:21:26.271Z,28.44
2022-10-05T11:22:41.116Z,28.47
2022-10-05T11:24:06.904Z,28.36
2022-10-05T11:25:42.898Z,28.24
2022-10-05T11:26:59.882Z,28.06
2022-10-05T11:28:25.504Z,27.94
2022-10-05T11:30:14.018Z,27.58
2022-10-05T11:31:53.451Z,27.42
2022-10-05T11:33:32.958Z,27.16
2022-10-05T11:34:59.007Z,27.08
2022-10-05T11:36:08.947Z,27.12
2022-10-05T11:37:38.251Z,27.15
2022-10-05T11:39:07.111Z,26.81
2022-10-05T11:40:33.517Z,26.86
2022-10-05T11:42:02.737Z,26.66
2022-10-05T11:43:42.373Z,26.50
2022-10-05T11:45:24.561Z,26.54
2022-10-05T11:46:57.907Z,26.52
2022-10-05T11:48:02.313Z,26.20
2022-10-05T11:49:29.252Z,25.92
2022-10-05T11:50:39.880Z,25.60
2022-10-05T11:51:51.816Z,25.38
2022-10-05T11:52:59.858Z,25.13
2022-10-05T11:54:58.609Z,24.95
2022-10-05T11:56:34.818Z,24.73
2022-10-05T11:57:43.043Z,24.84
2022-10-05T11:58:58.687Z,24.95
2022-10-05T12:00:13.579Z,25.02
2022-10-05T12:01:20.007Z,25.00
2022-10-05T12:02:39.963Z,24.90
2022-10-05T12:03:53.461Z,24.87
2022-10-05T12:05:03.677Z,24.96
2022-10-05T12:06:40.856Z,24.71
2022-10-05T12:07:51.426Z,24.62
2022-10-05T12:09:05.329Z,24.67
2022-10-05T12:10:44.912Z,24.59
2022-10-05T12:12:10.873Z,24.50
2022-10-05T12:13:15.242Z,24.35
2022-10-05T12:14:41.312Z,24.22
2022-10-05T12:15:48.336Z,24.05
2022-10-05T12:16:59.146Z,24.07
2022-10-05T12:18:13.687Z,23.73
2022-10-05T12:19:26.217Z,23.65
2022-10-05T12:20:53.479Z,23.68
2022-10-05T12:22:04.163Z,23.53
2022-10-05T12:23:16.788Z,23.41
2022-10-05T12:24:26.776Z,23.60
2022-10-05T12:25:47.437Z,23.57
2022-10-05T12:27:04.745Z,23.61
2022-10-05T12:28:15.808Z,23.63
2022-10-05T12:29:32.358Z,23.54
2022-10-05T12:30:55.706Z,23.49
2022-10-05T12:32:21.768Z,23.36
2022-10-05T12:33:35.005Z,23.37
2022-10-05T12:35:03.475Z,23.39
2022-10-05T12:36:14.874Z,23.41
2022-10-05T12:37:39.821Z,23.29
2022-10-05T12:38:51.991Z,23.37
2022-10-05T12:40:02.306Z,23.20
2022-10-05T12:41:45.490Z,23.25
2022-10-05T12:43:00.853Z,23.15
2022-10-05T12:44:37.699Z,23.25
2022-10-05T12:45:46.253Z,23.17
2022-10-05T12:47:18.275Z,23.15
2022-10-05T12:48:37.925Z,23.13
2022-10-05T12:50:01.351Z,23.04
2022-10-05T12:51:27.654Z,23.10
2022-10-05T12:53:03.069Z,23.11
2022-10-05T12:55:26.181Z,22.91
2022-10-05T12:57:06.067Z,22.92
2022-10-05T12:58:38.811Z,22.92
2022-10-05T13:00:22.744Z,22.98
2022-10-05T13:02:49.316Z,22.95
2022-10-05T13:04:09.056Z,22.95
2022-10-05T13:05:10.660Z,23.02
2022-10-05T13:06:35.423Z,23.05
2022-10-05T13:07:49.959Z,22.79
2022-10-05T13:08:56.032Z,22.75
2022-10-05T13:10:17.282Z,22.82
2022-10-05T13:11:28.459Z,22.85
2022-10-05T13:12:39.702Z,22.87
2022-10-05T13:13:57.792Z,22.47
2022-10-05T13:15:08.099Z,22.09
2022-10-05T13:16:28.415Z,22.27
2022-10-05T13:18:07.360Z,22.47
2022-10-05T13:19:31.994Z,22.37
2022-10-05T13:20:59.456Z,22.41
2022-10-05T13:22:37.800Z,22.48
2022-10-05T13:23:48.272Z,22.52
2022-10-05T13:25:19.065Z,22.61
2022-10-05T13:26:44.486Z,22.67
2022-10-05T13:27:53.588Z,22.73
2022-10-05T13:29:13.322Z,22.78
2022-10-05T13:30:20.731Z,22.78
2022-10-05T13:31:27.511Z,22.85
2022-10-05T13:32:39.172Z,22.92
2022-10-05T13:33:55.759Z,22.95
2022-10-05T13:35:19.076Z,22.96
2022-10-05T13:36:40.916Z,23.00
2022-10-05T13:37:45.315Z,23.06
2022-10-05T13:39:03.817Z,23.16
2022-10-05T13:40:19.671Z,23.20
2022-10-05T13:41:56.827Z,23.27
2022-10-05T13:43:06.236Z,23.30
2022-10-05T13:44:29.318Z,23.33
2022-10-05T13:46:05.320Z,23.39
2022-10-05T13:47:16.827Z,23.47
2022-10-05T13:48:40.037Z,23.51
2022-10-05T13:49:57.978Z,23.32
2022-10-05T13:51:06.125Z,23.33
2022-10-05T13:52:10.561Z,23.67
2022-10-05T13:53:23.936Z,23.75
2022-10-05T13:54:42.921Z,23.70
2022-10-05T13:55:49.552Z,23.68
2022-10-05T13:57:22.345Z,23.63
2022-10-05T13:58:51.489Z,23.65
2022-10-05T14:00:02.249Z,23.55
2022-10-05T14:01:14.443Z,23.61
2022-10-05T14:02:22.191Z,23.67
2022-10-05T14:03:36.045Z,23.67
2022-10-05T14:04:50.917Z,23.65
2022-10-05T14:05:58.219Z,23.58
2022-10-05T14:07:21.747Z,23.71
2022-10-05T14:08:28.882Z,23.77
2022-10-05T14:09:34.196Z,23.77
2022-10-05T14:10:38.461Z,23.76
2022-10-05T14:12:02.835Z,23.84
2022-10-05T14:13:33.767Z,23.89
2022-10-05T14:14:57.040Z,23.92
2022-10-05T14:16:28.263Z,24.00
2022-10-05T14:17:43.502Z,23.98
2022-10-05T14:18:55.889Z,24.05
2022-10-05T14:20:00.908Z,24.08
2022-10-05T14:21:08.422Z,24.13
2022-10-05T14:22:13.076Z,24.16
2022-10-05T14:23:24.567Z,24.19
2022-10-05T14:24:46.116Z,24.19
2022-10-05T14:25:54.010Z,24.20
2022-10-05T14:26:57.792Z,24.21
2022-10-05T14:28:02.953Z,24.25
2022-10-05T14:29:19.503Z,24.14
2022-10-05T14:30:24.159Z,24.22
2022-10-05T14:31:37.197Z,24.22
2022-10-05T14:32:59.293Z,24.21
2022-10-05T14:34:54.872Z,24.22
2022-10-05T14:35:58.639Z,24.19
2022-10-05T14:37:18.351Z,24.06
2022-10-05T14:38:53.459Z,24.21
2022-10-05T14:40:20.808Z,24.24
2022-10-05T14:41:28.024Z,23.95
2022-10-05T14:42:46.304Z,24.22
2022-10-05T14:44:15.443Z,24.07
2022-10-05T14:45:21.668Z,24.03
2022-10-05T14:46:28.789Z,23.94
2022-10-05T14:47:32.229Z,23.92
2022-10-05T14:48:44.820Z,23.97
2022-10-05T14:50:14.046Z,23.99
2022-10-05T14:51:31.971Z,23.96
2022-10-05T14:52:34.853Z,23.92
2022-10-05T14:53:43.401Z,23.96
2022-10-05T14:55:21.741Z,23.90
2022-10-05T14:56:58.234Z,23.74
2022-10-05T14:58:14.049Z,23.81
2022-10-05T14:59:46.049Z,23.78
2022-10-05T15:00:58.846Z,23.75
2022-10-05T15:02:18.540Z,23.60
2022-10-05T15:03:40.783Z,23.57
2022-10-05T15:05:01.839Z,23.38
2022-10-05T15:06:08.784Z,23.36
2022-10-05T15:07:30.920Z,23.47
2022-10-05T15:09:00.683Z,23.43
2022-10-05T15:10:37.117Z,23.35
2022-10-05T15:12:00.190Z,23.27
2022-10-05T15:13:44.719Z,23.17
2022-10-05T15:14:47.604Z,23.14
2022-10-05T15:15:59.193Z,23.03
2022-10-05T15:17:31.169Z,22.84
2022-10-05T15:19:16.129Z,22.74
2022-10-05T15:20:25.573Z,22.29
2022-10-05T15:21:30.163Z,21.96
2022-10-05T15:23:07.508Z,21.51
2022-10-05T15:24:17.423Z,21.37
2022-10-05T15:25:32.868Z,21.07
2022-10-05T15:26:37.387Z,21.04
2022-10-05T15:27:49.443Z,21.03
2022-10-05T15:29:07.377Z,20.95
2022-10-05T15:30:11.321Z,21.07
2022-10-05T15:32:04.542Z,20.98
2022-10-05T15:33:24.869Z,20.96
2022-10-05T15:34:58.127Z,20.89
2022-10-05T15:36:06.438Z,20.68
2022-10-05T15:37:20.268Z,20.65
2022-10-05T15:38:37.471Z,20.57
2022-10-05T15:39:48.325Z,20.48
2022-10-05T15:41:02.466Z,20.37
2022-10-05T15:42:11.349Z,20.31
2022-10-05T15:43:46.048Z,20.11
2022-10-05T15:45:23.545Z,19.86
2022-10-05T15:46:29.456Z,19.55
2022-10-05T15:47:56.628Z,19.42
2022-10-05T15:49:37.170Z,19.35
2022-10-05T15:50:56.400Z,19.31
2022-10-05T15:52:24.004Z,19.19
2022-10-05T15:53:36.114Z,19.05
2022-10-05T15:55:03.168Z,18.89
2022-10-05T15:56:27.898Z,18.51
2022-10-05T15:57:52.306Z,18.51
2022-10-05T15:59:18.936Z,18.53
2022-10-05T16:00:22.910Z,18.54
2022-10-05T16:01:35.557Z,18.39
2022-10-05T16:03:00.624Z,18.20
2022-10-05T16:04:15.387Z,17.92
2022-10-05T16:06:11.081Z,17.91
2022-10-05T16:07:59.585Z,17.63
2022-10-05T16:09:42.607Z,17.71
2022-10-05T16:10:45.626Z,17.45
2022-10-05T16:11:59.821Z,17.39
2022-10-05T16:13:14.168Z,17.51
2022-10-05T16:14:40.306Z,17.38
2022-10-05T16:16:17.171Z,17.32
2022-10-05T16:17:28.092Z,17.25
2022-10-05T16:18:47.306Z,17.15
2022-10-05T16:19:48.969Z,17.07
2022-10-05T16:20:57.145Z,17.14
2022-10-05T16:22:05.832Z,17.08
2022-10-05T16:23:18.094Z,16.86
2022-10-05T16:24:44.816Z,16.89
2022-10-05T16:26:01.664Z,16.94
2022-10-05T16:27:31.381Z,16.75
2022-10-05T16:28:50.742Z,16.58
2022-10-05T16:30:03.673Z,16.65
2022-10-05T16:31:06.217Z,16.57
2022-10-05T16:32:19.259Z,16.49
2022-10-05T16:33:45.931Z,16.48
2022-10-05T16:35:19.551Z,16.52
2022-10-05T16:36:48.299Z,16.51
2022-10-05T16:38:05.906Z,16.31
2022-10-05T16:39:14.759Z,16.31
2022-10-05T16:40:38.119Z,16.22
2022-10-05T16:42:12.808Z,16.33
2022-10-05T16:43:49.522Z,16.36
2022-10-05T16:45:06.917Z,16.37
2022-10-05T16:46:28.006Z,16.31
2022-10-05T16:47:39.063Z,16.29
2022-10-05T16:48:52.525Z,16.28
2022-10-05T16:50:06.198Z,16.31